createdAt,value
2022-10-28T00:00:24.855Z,5.50
2022-10-28T00:04:26.327Z,5.72
2022-10-28T00:08:28.507Z,5.93
2022-10-28T00:12:29.943Z,5.55
2022-10-28T00:16:33.696Z,5.38
2022-10-28T00:20:35.070Z,5.25
2022-10-28T00:24:36.482Z,6.78
2022-10-28T00:28:49.248Z,5.03
2022-10-28T00:32:50.722Z,5.97
2022-10-28T00:36:52.310Z,6.13
2022-10-28T00:40:53.634Z,5.32
2022-10-28T00:44:58.836Z,5.50
2022-10-28T00:49:05.450Z,4.68
2022-10-28T00:53:20.665Z,5.28
2022-10-28T00:57:28.612Z,5.93
2022-10-28T01:01:30.205Z,5.35
2022-10-28T01:05:35.707Z,5.18
2022-10-28T01:09:39.377Z,5.68
2022-10-28T01:14:06.146Z,5.30
2022-10-28T01:18:32.173Z,5.72
2022-10-28T01:22:42.358Z,5.47
2022-10-28T01:27:04.892Z,5.05
2022-10-28T01:31:30.622Z,5.18
2022-10-28T01:35:52.439Z,4.85
2022-10-28T01:40:08.155Z,4.88
2022-10-28T01:44:27.302Z,6.03
2022-10-28T01:48:39.873Z,5.70
2022-10-28T01:52:43.537Z,5.28
2022-10-28T01:56:47.027Z,4.97
2022-10-28T02:00:49.240Z,4.95
2022-10-28T02:04:50.676Z,5.00
2022-10-28T02:09:02.635Z,5.15
2022-10-28T02:13:07.704Z,5.00
2022-10-28T02:17:31.168Z,5.20
2022-10-28T02:21:37.210Z,4.65
2022-10-28T02:25:48.538Z,5.30
2022-10-28T02:29:58.994Z,4.72
2022-10-28T02:34:09.940Z,5.07
2022-10-28T02:38:15.788Z,5.15
2022-10-28T02:42:31.149Z,5.78
2022-10-28T02:46:34.923Z,5.32
2022-10-28T02:50:40.280Z,5.03
2022-10-28T02:54:55.725Z,5.10
2022-10-28T02:58:57.317Z,5.40
2022-10-28T03:02:58.748Z,5.93
2022-10-28T03:07:00.159Z,5.13
2022-10-28T03:11:01.573Z,5.00
2022-10-28T03:15:03.754Z,5.30
2022-10-28T03:19:05.275Z,5.55
2022-10-28T03:23:06.717Z,4.78
2022-10-28T03:27:08.721Z,5.72
2022-10-28T03:31:10.112Z,5.95
2022-10-28T03:35:11.565Z,5.68
2022-10-28T03:39:12.999Z,5.57
2022-10-28T03:43:14.723Z,5.85
2022-10-28T03:47:16.086Z,5.03
2022-10-28T03:51:17.722Z,6.05
2022-10-28T03:55:19.172Z,5.40
2022-10-28T03:59:20.622Z,5.72
2022-10-28T04:03:23.976Z,6.38
2022-10-28T04:07:25.419Z,5.50
2022-10-28T04:11:26.872Z,5.05
2022-10-28T04:15:28.492Z,5.78
2022-10-28T04:19:29.825Z,5.90
2022-10-28T04:23:31.210Z,5.55
2022-10-28T04:27:32.611Z,5.15
2022-10-28T04:31:34.474Z,5.88
2022-10-28T04:35:39.282Z,5.63
2022-10-28T04:39:40.781Z,5.75
2022-10-28T04:43:42.537Z,6.15
2022-10-28T04:47:44.390Z,5.63
2022-10-28T04:55:48.675Z,6.32
2022-10-28T04:59:50.014Z,5.15
2022-10-28T05:03:51.364Z,5.07
2022-10-28T05:07:53.147Z,6.38
2022-10-28T05:11:54.696Z,6.45
2022-10-28T05:15:56.091Z,6.13
2022-10-28T05:19:57.488Z,6.00
2022-10-28T05:23:58.968Z,6.38
2022-10-28T05:28:00.923Z,6.65
2022-10-28T05:32:02.350Z,6.10
2022-10-28T05:36:04.084Z,6.13
2022-10-28T05:40:06.073Z,6.97
2022-10-28T05:44:07.626Z,6.10
2022-10-28T05:48:09.706Z,6.47
2022-10-28T05:52:11.066Z,6.53
2022-10-28T05:56:12.499Z,6.80
2022-10-28T06:00:14.864Z,6.30
2022-10-28T06:04:16.311Z,6.05
2022-10-28T06:08:18.142Z,5.75
2022-10-28T06:12:18.027Z,5.95
2022-10-28T06:16:19.587Z,6.65
2022-10-28T06:20:20.950Z,6.72
2022-10-28T06:24:22.414Z,6.47
2022-10-28T06:28:24.494Z,6.00
2022-10-28T06:32:25.898Z,6.00
2022-10-28T06:36:28.056Z,5.82
2022-10-28T06:40:29.575Z,5.88
2022-10-28T06:44:30.954Z,5.60
2022-10-28T06:48:33.913Z,5.68
2022-10-28T06:52:35.329Z,6.57
2022-10-28T06:56:36.761Z,5.63
2022-10-28T07:00:38.130Z,5.85
2022-10-28T07:04:39.492Z,6.55
2022-10-28T07:08:40.923Z,5.85
2022-10-28T07:12:42.306Z,5.65
2022-10-28T07:16:43.699Z,5.85
2022-10-28T07:20:45.158Z,5.13
2022-10-28T07:24:46.577Z,5.55
2022-10-28T07:28:47.998Z,4.93
2022-10-28T07:32:49.442Z,4.88
2022-10-28T07:36:52.488Z,4.82
2022-10-28T07:40:53.905Z,4.97
2022-10-28T07:44:55.301Z,4.03
2022-10-28T07:48:56.737Z,4.45
2022-10-28T07:52:58.173Z,4.80
2022-10-28T07:56:59.631Z,4.35
2022-10-28T08:01:07.066Z,4.22
2022-10-28T08:05:08.734Z,5.05
2022-10-28T08:09:10.261Z,4.35
2022-10-28T08:13:12.615Z,4.13
2022-10-28T08:17:14.132Z,4.43
2022-10-28T08:21:16.136Z,3.45
2022-10-28T08:25:17.506Z,4.38
2022-10-28T08:29:18.928Z,3.97
2022-10-28T08:33:20.317Z,4.43
2022-10-28T08:37:21.777Z,3.60
2022-10-28T08:41:46.595Z,4.32
2022-10-28T08:45:57.015Z,3.55
2022-10-28T08:50:10.288Z,3.65
2022-10-28T08:54:37.170Z,3.60
2022-10-28T08:58:39.149Z,3.38
2022-10-28T09:03:07.821Z,2.92
2022-10-28T09:07:21.446Z,3.05
2022-10-28T09:11:27.355Z,3.67
2022-10-28T09:15:34.918Z,2.92
2022-10-28T09:19:47.749Z,3.35
2022-10-28T09:24:00.872Z,3.58
2022-10-28T09:28:06.461Z,3.80
2022-10-28T09:32:19.714Z,3.30
2022-10-28T09:36:31.939Z,3.20
2022-10-28T09:40:36.589Z,3.17
2022-10-28T09:44:55.961Z,3.42
2022-10-28T09:49:02.008Z,2.75
2022-10-28T09:53:25.118Z,2.97
2022-10-28T09:57:30.772Z,2.70
2022-10-28T10:01:35.004Z,2.90
2022-10-28T10:05:51.014Z,3.85
2022-10-28T10:09:52.695Z,3.15
2022-10-28T10:13:57.129Z,3.15
2022-10-28T10:18:02.130Z,2.75
2022-10-28T10:22:03.575Z,2.67
2022-10-28T10:26:11.998Z,2.45
2022-10-28T10:30:20.949Z,2.70
2022-10-28T10:34:25.367Z,2.15
2022-10-28T10:38:28.123Z,2.95
2022-10-28T10:42:29.557Z,2.70
2022-10-28T10:46:34.160Z,2.25
2022-10-28T10:50:37.824Z,2.88
2022-10-28T10:54:39.311Z,2.92
2022-10-28T10:58:49.766Z,2.80
2022-10-28T11:02:55.026Z,2.92
2022-10-28T11:06:58.128Z,2.65
2022-10-28T11:11:04.847Z,2.60
2022-10-28T11:15:22.856Z,2.35
2022-10-28T11:19:29.935Z,2.58
2022-10-28T11:23:37.047Z,2.80
2022-10-28T11:27:38.447Z,2.65
2022-10-28T11:32:04.731Z,2.17
2022-10-28T11:36:09.114Z,2.60
2022-10-28T11:40:39.730Z,3.67
2022-10-28T11:44:56.731Z,2.90
2022-10-28T11:49:27.138Z,2.38
2022-10-28T11:53:36.174Z,1.90
2022-10-28T11:58:22.711Z,2.58
2022-10-28T12:02:36.612Z,2.70
2022-10-28T12:06:49.080Z,2.20
2022-10-28T12:11:03.230Z,2.60
2022-10-28T12:15:20.492Z,3.08
2022-10-28T12:19:33.620Z,2.35
2022-10-28T12:23:37.950Z,2.90
2022-10-28T12:27:44.304Z,2.45
2022-10-28T12:31:50.308Z,3.33
2022-10-28T12:35:55.546Z,2.90
2022-10-28T12:40:04.853Z,2.60
2022-10-28T12:44:13.857Z,3.30
2022-10-28T12:48:32.133Z,2.15
2022-10-28T12:52:43.618Z,2.67
2022-10-28T12:56:52.930Z,3.00
2022-10-28T13:01:00.274Z,2.95
2022-10-28T13:05:04.422Z,2.63
2022-10-28T13:09:24.265Z,2.92
2022-10-28T13:13:47.799Z,2.33
2022-10-28T13:18:07.908Z,2.35
2022-10-28T13:22:16.991Z,2.78
2022-10-28T13:26:26.977Z,2.83
2022-10-28T13:30:31.956Z,2.60
2022-10-28T13:34:37.594Z,2.67
2022-10-28T13:38:40.475Z,2.28
2022-10-28T13:42:47.220Z,2.83
2022-10-28T13:47:05.138Z,2.45
2022-10-28T13:51:09.357Z,2.72
2022-10-28T13:55:13.709Z,2.50
2022-10-28T13:59:15.054Z,2.40
2022-10-28T14:03:19.698Z,2.95
2022-10-28T14:07:26.644Z,2.40
2022-10-28T14:11:30.293Z,2.60
2022-10-28T14:15:38.378Z,2.35
2022-10-28T14:19:40.053Z,2.70
2022-10-28T14:23:44.460Z,2.65
2022-10-28T14:27:45.894Z,3.10
2022-10-28T14:31:47.424Z,2.75
2022-10-28T14:35:58.135Z,2.38
2022-10-28T14:40:34.192Z,2.75
2022-10-28T14:44:50.589Z,2.83
2022-10-28T14:48:57.353Z,2.80
2022-10-28T14:53:02.002Z,2.70
2022-10-28T14:57:05.487Z,2.33
2022-10-28T15:01:23.203Z,3.45
2022-10-28T15:05:30.562Z,3.33
2022-10-28T15:09:34.829Z,2.70
2022-10-28T15:13:36.268Z,3.90
2022-10-28T15:17:42.393Z,3.33
2022-10-28T15:21:43.781Z,5.05
2022-10-28T15:25:45.247Z,2.75
2022-10-28T15:29:48.757Z,2.42
2022-10-28T15:33:50.195Z,3.83
2022-10-28T15:37:51.743Z,3.10
2022-10-28T15:41:54.775Z,3.78
2022-10-28T15:46:10.837Z,2.95
2022-10-28T15:50:15.223Z,3.13
2022-10-28T15:54:19.886Z,2.55
2022-10-28T15:58:30.881Z,3.10
2022-10-28T16:02:42.741Z,2.65
2022-10-28T16:06:45.243Z,3.17
2022-10-28T16:10:55.635Z,2.90
2022-10-28T16:15:04.659Z,2.90
2022-10-28T16:19:10.417Z,4.65
2022-10-28T16:23:21.094Z,4.40
2022-10-28T16:27:31.771Z,4.57
2022-10-28T16:31:34.150Z,3.53
2022-10-28T16:35:35.595Z,3.25
2022-10-28T16:39:36.935Z,4.00
2022-10-28T16:43:38.315Z,3.72
2022-10-28T16:47:39.814Z,3.45
2022-10-28T16:51:41.163Z,3.47
2022-10-28T16:55:42.705Z,4.28
2022-10-28T16:59:44.316Z,2.72
2022-10-28T17:03:45.664Z,3.08
2022-10-28T17:07:47.296Z,4.10
2022-10-28T17:11:48.627Z,3.38
2022-10-28T17:15:53.533Z,5.00
2022-10-28T17:19:55.177Z,3.85
2022-10-28T17:23:56.582Z,3.72
2022-10-28T17:27:58.171Z,3.65
2022-10-28T17:31:59.734Z,3.83
2022-10-28T17:36:05.996Z,4.18
2022-10-28T17:40:08.304Z,4.97
2022-10-28T17:44:09.670Z,4.95
2022-10-28T17:48:11.200Z,5.65
2022-10-28T17:52:13.252Z,5.30
2022-10-28T17:56:14.711Z,5.57
2022-10-28T18:00:16.309Z,4.97
2022-10-28T18:04:17.749Z,4.88
2022-10-28T18:08:20.705Z,4.13
2022-10-28T18:12:22.079Z,3.83
2022-10-28T18:16:27.940Z,4.10
2022-10-28T18:20:29.322Z,4.20
2022-10-28T18:24:30.742Z,4.20
2022-10-28T18:28:34.016Z,4.25
2022-10-28T18:32:35.367Z,4.05
2022-10-28T18:36:37.232Z,3.78
2022-10-28T18:40:46.653Z,3.90
2022-10-28T18:48:49.790Z,4.32
2022-10-28T18:52:51.183Z,4.13
2022-10-28T18:56:56.552Z,5.10
2022-10-28T19:01:06.486Z,4.40
2022-10-28T19:05:08.064Z,4.13
2022-10-28T19:09:09.501Z,5.07
2022-10-28T19:13:10.880Z,4.45
2022-10-28T19:17:12.415Z,4.50
2022-10-28T19:21:15.917Z,4.70
2022-10-28T19:25:17.312Z,5.20
2022-10-28T19:29:19.810Z,4.20
2022-10-28T19:33:21.232Z,5.65
2022-10-28T19:37:23.168Z,5.47
2022-10-28T19:41:29.859Z,4.82
2022-10-28T19:45:31.210Z,4.57
2022-10-28T19:49:37.240Z,4.55
2022-10-28T19:53:40.812Z,4.38
2022-10-28T19:57:42.178Z,6.88
2022-10-28T20:01:43.636Z,5.72
2022-10-28T20:05:45.115Z,4.38
2022-10-28T20:09:46.610Z,4.97
2022-10-28T20:13:52.365Z,5.30
2022-10-28T20:17:53.802Z,6.00
2022-10-28T20:21:55.228Z,6.05
2022-10-28T20:25:56.696Z,5.63
2022-10-28T20:29:59.688Z,4.85
2022-10-28T20:34:03.857Z,5.88
2022-10-28T20:38:05.318Z,6.72
2022-10-28T20:42:06.697Z,5.20
2022-10-28T20:46:09.134Z,5.13
2022-10-28T20:50:10.500Z,10.80
2022-10-28T20:54:12.034Z,4.95
2022-10-28T20:58:13.653Z,6.68
2022-10-28T21:02:15.224Z,6.45
2022-10-28T21:06:17.251Z,7.63
2022-10-28T21:10:19.078Z,5.60
2022-10-28T21:14:21.553Z,5.35
2022-10-28T21:18:22.990Z,6.75
2022-10-28T21:22:24.489Z,7.82
2022-10-28T21:26:27.056Z,6.13
2022-10-28T21:30:28.819Z,5.53
2022-10-28T21:34:30.219Z,4.72
2022-10-28T21:38:31.928Z,4.97
2022-10-28T21:42:33.391Z,4.90
2022-10-28T21:46:34.784Z,4.55
2022-10-28T21:50:36.142Z,5.47
2022-10-28T21:54:37.521Z,5.47
2022-10-28T21:58:39.888Z,5.72
2022-10-28T22:02:41.389Z,4.30
2022-10-28T22:06:43.028Z,4.47
2022-10-28T22:10:44.530Z,4.10
2022-10-28T22:14:45.941Z,5.43
2022-10-28T22:18:47.453Z,5.05
2022-10-28T22:22:48.849Z,4.45
2022-10-28T22:26:50.335Z,4.18
2022-10-28T22:30:51.735Z,4.72
2022-10-28T22:34:53.115Z,4.32
2022-10-28T22:38:55.197Z,4.18
2022-10-28T22:42:56.572Z,4.40
2022-10-28T22:46:58.037Z,4.78
2022-10-28T22:51:00.032Z,4.43
2022-10-28T22:55:01.429Z,4.18
2022-10-28T22:59:02.860Z,4.80
2022-10-28T23:03:04.392Z,4.25
2022-10-28T23:07:05.770Z,3.67
2022-10-28T23:11:08.195Z,3.60
2022-10-28T23:15:09.566Z,4.88
2022-10-28T23:19:10.962Z,4.55
2022-10-28T23:23:12.387Z,4.32
2022-10-28T23:27:13.803Z,4.50
2022-10-28T23:31:15.465Z,4.53
2022-10-28T23:35:17.150Z,4.25
2022-10-28T23:39:18.556Z,4.28
2022-10-28T23:43:19.937Z,4.00
2022-10-28T23:47:21.326Z,3.75
2022-10-28T23:51:22.719Z,4.32
2022-10-28T23:55:24.101Z,4.40
2022-10-28T23:59:25.510Z,3.85
